sensor_id;sensor_type;location;lat;lon;timestamp;P1;durP1;ratioP1;P2;durP2;ratioP2
11052;SDS011;55230;42.602;23.470;2024-03-08T00:02:11;24.63;;;10.75;;
11052;SDS011;55230;42.602;23.470;2024-03-08T00:04:38;19.15;;;9.88;;
11052;SDS011;55230;42.602;23.470;2024-03-08T00:07:04;26.27;;;10.48;;
11052;SDS011;55230;42.602;23.470;2024-03-08T00:09:29;21.65;;;11.25;;
11052;SDS011;55230;42.602;23.470;2024-03-08T00:11:55;22.42;;;12.02;;
11052;SDS011;55230;42.602;23.470;2024-03-08T00:14:21;25.42;;;11.15;;
11052;SDS011;55230;42.602;23.470;2024-03-08T00:16:47;23.73;;;10.25;;
11052;SDS011;55230;42.602;23.470;2024-03-08T00:19:12;19.48;;;10.00;;
11052;SDS011;55230;42.602;23.470;2024-03-08T00:21:37;20.55;;;9.50;;
11052;SDS011;55230;42.602;23.470;2024-03-08T00:24:03;19.25;;;10.05;;
11052;SDS011;55230;42.602;23.470;2024-03-08T00:26:29;21.17;;;10.35;;
11052;SDS011;55230;42.602;23.470;2024-03-08T00:28:54;20.05;;;11.75;;
11052;SDS011;55230;42.602;23.470;2024-03-08T00:31:21;20.77;;;9.43;;
11052;SDS011;55230;42.602;23.470;2024-03-08T00:33:46;18.02;;;8.95;;
11052;SDS011;55230;42.602;23.470;2024-03-08T00:36:12;17.15;;;9.93;;
11052;SDS011;55230;42.602;23.470;2024-03-08T00:38:37;19.98;;;10.48;;
11052;SDS011;55230;42.602;23.470;2024-03-08T00:41:03;23.95;;;10.60;;
11052;SDS011;55230;42.602;23.470;2024-03-08T00:43:28;19.63;;;10.07;;
11052;SDS011;55230;42.602;23.470;2024-03-08T00:45:55;19.77;;;9.20;;
11052;SDS011;55230;42.602;23.470;2024-03-08T00:48:21;19.90;;;11.30;;
11052;SDS011;55230;42.602;23.470;2024-03-08T00:50:46;22.00;;;10.85;;
11052;SDS011;55230;42.602;23.470;2024-03-08T00:53:12;19.88;;;10.85;;
11052;SDS011;55230;42.602;23.470;2024-03-08T00:55:38;22.13;;;9.85;;
11052;SDS011;55230;42.602;23.470;2024-03-08T00:58:03;18.67;;;10.43;;
11052;SDS011;55230;42.602;23.470;2024-03-08T01:00:29;21.20;;;12.55;;
11052;SDS011;55230;42.602;23.470;2024-03-08T01:02:55;24.42;;;14.25;;
11052;SDS011;55230;42.602;23.470;2024-03-08T01:05:20;35.60;;;17.30;;
11052;SDS011;55230;42.602;23.470;2024-03-08T01:07:46;30.88;;;16.17;;
11052;SDS011;55230;42.602;23.470;2024-03-08T01:10:11;35.90;;;16.55;;
11052;SDS011;55230;42.602;23.470;2024-03-08T01:12:37;35.17;;;13.88;;
11052;SDS011;55230;42.602;23.470;2024-03-08T01:15:04;27.33;;;13.13;;
11052;SDS011;55230;42.602;23.470;2024-03-08T01:17:29;30.80;;;13.30;;
11052;SDS011;55230;42.602;23.470;2024-03-08T01:19:55;31.88;;;14.98;;
11052;SDS011;55230;42.602;23.470;2024-03-08T01:22:22;29.92;;;13.75;;
11052;SDS011;55230;42.602;23.470;2024-03-08T01:24:48;25.33;;;10.30;;
11052;SDS011;55230;42.602;23.470;2024-03-08T01:27:13;26.85;;;11.98;;
11052;SDS011;55230;42.602;23.470;2024-03-08T01:29:39;26.95;;;11.32;;
11052;SDS011;55230;42.602;23.470;2024-03-08T01:32:04;23.65;;;11.48;;
11052;SDS011;55230;42.602;23.470;2024-03-08T01:34:31;24.00;;;12.15;;
11052;SDS011;55230;42.602;23.470;2024-03-08T01:36:58;23.83;;;12.25;;
11052;SDS011;55230;42.602;23.470;2024-03-08T01:39:24;22.17;;;9.85;;
11052;SDS011;55230;42.602;23.470;2024-03-08T01:41:49;20.90;;;10.43;;
11052;SDS011;55230;42.602;23.470;2024-03-08T01:44:14;18.77;;;9.45;;
11052;SDS011;55230;42.602;23.470;2024-03-08T01:46:43;14.50;;;8.15;;
11052;SDS011;55230;42.602;23.470;2024-03-08T01:49:10;17.48;;;8.50;;
11052;SDS011;55230;42.602;23.470;2024-03-08T01:51:37;16.45;;;10.07;;
11052;SDS011;55230;42.602;23.470;2024-03-08T01:54:05;18.08;;;9.52;;
11052;SDS011;55230;42.602;23.470;2024-03-08T01:56:31;15.00;;;8.00;;
11052;SDS011;55230;42.602;23.470;2024-03-08T01:58:57;16.38;;;8.20;;
11052;SDS011;55230;42.602;23.470;2024-03-08T02:01:24;21.60;;;9.73;;
11052;SDS011;55230;42.602;23.470;2024-03-08T02:03:50;20.40;;;10.32;;
11052;SDS011;55230;42.602;23.470;2024-03-08T02:06:15;132.18;;;12.10;;
11052;SDS011;55230;42.602;23.470;2024-03-08T02:08:42;80.28;;;9.98;;
11052;SDS011;55230;42.602;23.470;2024-03-08T02:11:10;123.57;;;10.40;;
11052;SDS011;55230;42.602;23.470;2024-03-08T02:13:35;90.38;;;10.13;;
11052;SDS011;55230;42.602;23.470;2024-03-08T02:16:01;31.42;;;7.30;;
11052;SDS011;55230;42.602;23.470;2024-03-08T02:18:27;15.80;;;8.15;;
11052;SDS011;55230;42.602;23.470;2024-03-08T02:20:57;11.38;;;6.72;;
11052;SDS011;55230;42.602;23.470;2024-03-08T02:23:24;8.93;;;5.70;;
11052;SDS011;55230;42.602;23.470;2024-03-08T02:25:50;10.75;;;6.05;;
11052;SDS011;55230;42.602;23.470;2024-03-08T02:28:16;10.55;;;5.15;;
11052;SDS011;55230;42.602;23.470;2024-03-08T02:30:45;10.02;;;6.28;;
11052;SDS011;55230;42.602;23.470;2024-03-08T02:33:14;8.95;;;5.80;;
11052;SDS011;55230;42.602;23.470;2024-03-08T02:35:44;8.07;;;5.70;;
11052;SDS011;55230;42.602;23.470;2024-03-08T02:38:13;7.25;;;5.80;;
11052;SDS011;55230;42.602;23.470;2024-03-08T02:40:50;7.85;;;4.97;;
11052;SDS011;55230;42.602;23.470;2024-03-08T02:43:17;9.15;;;5.63;;
11052;SDS011;55230;42.602;23.470;2024-03-08T02:45:43;12.73;;;5.55;;
11052;SDS011;55230;42.602;23.470;2024-03-08T02:48:10;9.40;;;5.82;;
11052;SDS011;55230;42.602;23.470;2024-03-08T02:50:36;9.05;;;5.32;;
11052;SDS011;55230;42.602;23.470;2024-03-08T02:53:01;7.78;;;5.53;;
11052;SDS011;55230;42.602;23.470;2024-03-08T02:55:27;15.95;;;8.98;;
11052;SDS011;55230;42.602;23.470;2024-03-08T02:57:53;8.07;;;5.72;;
11052;SDS011;55230;42.602;23.470;2024-03-08T03:00:21;7.38;;;5.57;;
11052;SDS011;55230;42.602;23.470;2024-03-08T03:02:48;7.45;;;5.18;;
11052;SDS011;55230;42.602;23.470;2024-03-08T03:05:18;11.90;;;5.18;;
11052;SDS011;55230;42.602;23.470;2024-03-08T03:07:47;8.10;;;5.78;;
11052;SDS011;55230;42.602;23.470;2024-03-08T03:10:13;7.68;;;5.65;;
11052;SDS011;55230;42.602;23.470;2024-03-08T03:12:42;8.32;;;5.93;;
11052;SDS011;55230;42.602;23.470;2024-03-08T03:15:07;5.22;;;4.45;;
11052;SDS011;55230;42.602;23.470;2024-03-08T03:17:33;6.25;;;4.13;;
11052;SDS011;55230;42.602;23.470;2024-03-08T03:19:59;3.92;;;3.25;;
11052;SDS011;55230;42.602;23.470;2024-03-08T03:22:27;3.13;;;2.90;;
11052;SDS011;55230;42.602;23.470;2024-03-08T03:24:55;3.50;;;2.92;;
11052;SDS011;55230;42.602;23.470;2024-03-08T03:27:23;3.58;;;3.28;;
11052;SDS011;55230;42.602;23.470;2024-03-08T03:29:49;8.02;;;4.32;;
11052;SDS011;55230;42.602;23.470;2024-03-08T03:32:17;4.25;;;3.75;;
11052;SDS011;55230;42.602;23.470;2024-03-08T03:34:43;3.88;;;3.58;;
11052;SDS011;55230;42.602;23.470;2024-03-08T03:37:09;3.38;;;2.92;;
11052;SDS011;55230;42.602;23.470;2024-03-08T03:39:37;3.20;;;2.90;;
11052;SDS011;55230;42.602;23.470;2024-03-08T03:42:18;2.45;;;2.25;;
11052;SDS011;55230;42.602;23.470;2024-03-08T03:44:44;5.55;;;4.35;;
11052;SDS011;55230;42.602;23.470;2024-03-08T03:47:10;3.55;;;2.78;;
11052;SDS011;55230;42.602;23.470;2024-03-08T03:49:36;13.15;;;9.48;;
11052;SDS011;55230;42.602;23.470;2024-03-08T03:52:02;2.13;;;1.90;;
11052;SDS011;55230;42.602;23.470;2024-03-08T03:54:29;2.65;;;2.45;;
11052;SDS011;55230;42.602;23.470;2024-03-08T03:56:55;3.83;;;3.17;;
11052;SDS011;55230;42.602;23.470;2024-03-08T03:59:21;2.42;;;2.17;;
11052;SDS011;55230;42.602;23.470;2024-03-08T04:01:46;2.80;;;2.60;;
11052;SDS011;55230;42.602;23.470;2024-03-08T04:04:12;2.53;;;1.77;;
11052;SDS011;55230;42.602;23.470;2024-03-08T04:06:38;2.95;;;2.55;;
11052;SDS011;55230;42.602;23.470;2024-03-08T04:09:03;3.33;;;2.38;;
11052;SDS011;55230;42.602;23.470;2024-03-08T04:11:29;2.65;;;2.42;;
11052;SDS011;55230;42.602;23.470;2024-03-08T04:13:55;6.03;;;5.00;;
11052;SDS011;55230;42.602;23.470;2024-03-08T04:16:21;4.88;;;3.30;;
11052;SDS011;55230;42.602;23.470;2024-03-08T04:18:46;4.18;;;3.88;;
11052;SDS011;55230;42.602;23.470;2024-03-08T04:21:12;6.10;;;4.05;;
11052;SDS011;55230;42.602;23.470;2024-03-08T04:23:38;6.70;;;5.60;;
11052;SDS011;55230;42.602;23.470;2024-03-08T04:26:03;6.35;;;4.90;;
11052;SDS011;55230;42.602;23.470;2024-03-08T04:28:30;19.15;;;10.80;;
11052;SDS011;55230;42.602;23.470;2024-03-08T04:30:56;7.78;;;6.00;;
11052;SDS011;55230;42.602;23.470;2024-03-08T04:33:22;3.42;;;3.13;;
11052;SDS011;55230;42.602;23.470;2024-03-08T04:35:48;4.55;;;4.13;;
11052;SDS011;55230;42.602;23.470;2024-03-08T04:38:14;6.45;;;5.05;;
11052;SDS011;55230;42.602;23.470;2024-03-08T04:40:40;10.18;;;7.90;;
11052;SDS011;55230;42.602;23.470;2024-03-08T04:43:06;9.05;;;5.70;;
11052;SDS011;55230;42.602;23.470;2024-03-08T04:45:33;5.40;;;4.88;;
11052;SDS011;55230;42.602;23.470;2024-03-08T04:47:59;4.70;;;3.35;;
11052;SDS011;55230;42.602;23.470;2024-03-08T04:50:24;5.45;;;3.45;;
11052;SDS011;55230;42.602;23.470;2024-03-08T04:52:49;6.53;;;3.83;;
11052;SDS011;55230;42.602;23.470;2024-03-08T04:55:15;4.47;;;4.07;;
11052;SDS011;55230;42.602;23.470;2024-03-08T04:57:40;5.10;;;4.60;;
11052;SDS011;55230;42.602;23.470;2024-03-08T05:00:09;4.65;;;4.13;;
11052;SDS011;55230;42.602;23.470;2024-03-08T05:02:39;5.68;;;5.13;;
11052;SDS011;55230;42.602;23.470;2024-03-08T05:05:07;5.65;;;4.82;;
11052;SDS011;55230;42.602;23.470;2024-03-08T05:07:36;4.70;;;4.22;;
11052;SDS011;55230;42.602;23.470;2024-03-08T05:10:02;7.82;;;5.93;;
11052;SDS011;55230;42.602;23.470;2024-03-08T05:12:28;10.85;;;7.47;;
11052;SDS011;55230;42.602;23.470;2024-03-08T05:14:53;12.60;;;8.07;;
11052;SDS011;55230;42.602;23.470;2024-03-08T05:17:19;6.15;;;4.50;;
11052;SDS011;55230;42.602;23.470;2024-03-08T05:19:45;2.90;;;2.70;;
11052;SDS011;55230;42.602;23.470;2024-03-08T05:22:10;7.13;;;6.22;;
11052;SDS011;55230;42.602;23.470;2024-03-08T05:24:36;4.53;;;3.92;;
11052;SDS011;55230;42.602;23.470;2024-03-08T05:27:01;4.13;;;3.45;;
11052;SDS011;55230;42.602;23.470;2024-03-08T05:29:28;5.68;;;4.57;;
11052;SDS011;55230;42.602;23.470;2024-03-08T05:31:54;9.45;;;6.65;;
11052;SDS011;55230;42.602;23.470;2024-03-08T05:34:20;8.98;;;6.15;;
11052;SDS011;55230;42.602;23.470;2024-03-08T05:36:47;5.88;;;5.13;;
11052;SDS011;55230;42.602;23.470;2024-03-08T05:39:16;6.85;;;5.25;;
11052;SDS011;55230;42.602;23.470;2024-03-08T05:41:42;8.82;;;5.55;;
11052;SDS011;55230;42.602;23.470;2024-03-08T05:44:08;8.10;;;5.68;;
11052;SDS011;55230;42.602;23.470;2024-03-08T05:46:34;7.70;;;5.68;;
11052;SDS011;55230;42.602;23.470;2024-03-08T05:49:03;8.25;;;6.20;;
11052;SDS011;55230;42.602;23.470;2024-03-08T05:51:35;6.50;;;5.55;;
11052;SDS011;55230;42.602;23.470;2024-03-08T05:54:02;6.57;;;4.50;;
11052;SDS011;55230;42.602;23.470;2024-03-08T05:56:29;5.43;;;4.53;;
11052;SDS011;55230;42.602;23.470;2024-03-08T05:58:54;4.65;;;3.65;;
11052;SDS011;55230;42.602;23.470;2024-03-08T06:01:20;7.97;;;4.78;;
11052;SDS011;55230;42.602;23.470;2024-03-08T06:03:45;4.82;;;4.28;;
11052;SDS011;55230;42.602;23.470;2024-03-08T06:06:12;6.90;;;4.18;;
11052;SDS011;55230;42.602;23.470;2024-03-08T06:08:38;5.50;;;3.85;;
11052;SDS011;55230;42.602;23.470;2024-03-08T06:11:04;6.78;;;5.07;;
11052;SDS011;55230;42.602;23.470;2024-03-08T06:13:31;13.85;;;8.93;;
11052;SDS011;55230;42.602;23.470;2024-03-08T06:16:00;8.95;;;7.28;;
11052;SDS011;55230;42.602;23.470;2024-03-08T06:18:26;10.20;;;6.65;;
11052;SDS011;55230;42.602;23.470;2024-03-08T06:20:51;10.80;;;6.78;;
11052;SDS011;55230;42.602;23.470;2024-03-08T06:23:17;11.88;;;6.90;;
11052;SDS011;55230;42.602;23.470;2024-03-08T06:25:46;8.13;;;5.50;;
11052;SDS011;55230;42.602;23.470;2024-03-08T06:28:11;9.43;;;5.40;;
11052;SDS011;55230;42.602;23.470;2024-03-08T06:30:37;5.68;;;4.85;;
11052;SDS011;55230;42.602;23.470;2024-03-08T06:33:02;10.00;;;5.63;;
11052;SDS011;55230;42.602;23.470;2024-03-08T06:35:28;11.50;;;7.47;;
11052;SDS011;55230;42.602;23.470;2024-03-08T06:37:53;12.57;;;9.52;;
11052;SDS011;55230;42.602;23.470;2024-03-08T06:40:18;7.00;;;5.78;;
11052;SDS011;55230;42.602;23.470;2024-03-08T06:42:44;5.40;;;4.70;;
11052;SDS011;55230;42.602;23.470;2024-03-08T06:45:10;8.02;;;5.85;;
11052;SDS011;55230;42.602;23.470;2024-03-08T06:47:37;6.13;;;5.00;;
11052;SDS011;55230;42.602;23.470;2024-03-08T06:50:02;4.28;;;3.50;;
11052;SDS011;55230;42.602;23.470;2024-03-08T06:52:29;4.97;;;3.90;;
11052;SDS011;55230;42.602;23.470;2024-03-08T06:54:54;3.33;;;3.03;;
11052;SDS011;55230;42.602;23.470;2024-03-08T06:57:20;5.15;;;4.15;;
11052;SDS011;55230;42.602;23.470;2024-03-08T06:59:47;3.80;;;3.45;;
11052;SDS011;55230;42.602;23.470;2024-03-08T07:02:13;3.55;;;3.25;;
11052;SDS011;55230;42.602;23.470;2024-03-08T07:04:38;4.97;;;4.57;;
11052;SDS011;55230;42.602;23.470;2024-03-08T07:07:04;6.95;;;6.35;;
11052;SDS011;55230;42.602;23.470;2024-03-08T07:09:30;4.72;;;4.07;;
11052;SDS011;55230;42.602;23.470;2024-03-08T07:11:55;3.50;;;3.08;;
11052;SDS011;55230;42.602;23.470;2024-03-08T07:14:21;6.35;;;5.22;;
11052;SDS011;55230;42.602;23.470;2024-03-08T07:16:47;7.40;;;4.93;;
11052;SDS011;55230;42.602;23.470;2024-03-08T07:19:13;4.57;;;3.97;;
11052;SDS011;55230;42.602;23.470;2024-03-08T07:21:38;7.82;;;5.97;;
11052;SDS011;55230;42.602;23.470;2024-03-08T07:24:04;6.13;;;5.07;;
11052;SDS011;55230;42.602;23.470;2024-03-08T07:29:07;4.07;;;3.40;;
11052;SDS011;55230;42.602;23.470;2024-03-08T07:31:33;3.75;;;3.42;;
11052;SDS011;55230;42.602;23.470;2024-03-08T07:34:37;3.28;;;2.78;;
11052;SDS011;55230;42.602;23.470;2024-03-08T07:37:05;3.63;;;3.08;;
11052;SDS011;55230;42.602;23.470;2024-03-08T07:39:30;3.45;;;3.10;;
11052;SDS011;55230;42.602;23.470;2024-03-08T07:41:57;5.32;;;2.75;;
11052;SDS011;55230;42.602;23.470;2024-03-08T07:44:22;3.65;;;3.33;;
11052;SDS011;55230;42.602;23.470;2024-03-08T07:46:48;6.75;;;4.07;;
11052;SDS011;55230;42.602;23.470;2024-03-08T07:49:14;3.70;;;3.40;;
11052;SDS011;55230;42.602;23.470;2024-03-08T07:51:40;4.15;;;2.78;;
11052;SDS011;55230;42.602;23.470;2024-03-08T07:54:06;5.22;;;4.65;;
11052;SDS011;55230;42.602;23.470;2024-03-08T07:56:34;6.47;;;4.72;;
11052;SDS011;55230;42.602;23.470;2024-03-08T07:59:01;3.97;;;3.67;;
11052;SDS011;55230;42.602;23.470;2024-03-08T08:01:28;2.80;;;2.60;;
11052;SDS011;55230;42.602;23.470;2024-03-08T08:03:55;2.45;;;2.22;;
11052;SDS011;55230;42.602;23.470;2024-03-08T08:06:21;3.20;;;3.00;;
11052;SDS011;55230;42.602;23.470;2024-03-08T08:08:47;2.80;;;2.60;;
11052;SDS011;55230;42.602;23.470;2024-03-08T08:11:13;3.40;;;3.10;;
11052;SDS011;55230;42.602;23.470;2024-03-08T08:13:40;6.35;;;4.65;;
11052;SDS011;55230;42.602;23.470;2024-03-08T08:16:08;5.78;;;4.82;;
11052;SDS011;55230;42.602;23.470;2024-03-08T08:18:34;6.80;;;3.70;;
11052;SDS011;55230;42.602;23.470;2024-03-08T08:21:01;3.78;;;3.47;;
11052;SDS011;55230;42.602;23.470;2024-03-08T08:23:27;4.18;;;3.80;;
11052;SDS011;55230;42.602;23.470;2024-03-08T08:25:53;5.78;;;5.22;;
11052;SDS011;55230;42.602;23.470;2024-03-08T08:28:19;6.75;;;6.25;;
11052;SDS011;55230;42.602;23.470;2024-03-08T08:30:45;5.90;;;4.45;;
11052;SDS011;55230;42.602;23.470;2024-03-08T08:33:11;4.28;;;3.88;;
11052;SDS011;55230;42.602;23.470;2024-03-08T08:35:37;4.88;;;4.38;;
11052;SDS011;55230;42.602;23.470;2024-03-08T08:38:04;3.88;;;3.58;;
11052;SDS011;55230;42.602;23.470;2024-03-08T08:40:29;4.20;;;3.78;;
11052;SDS011;55230;42.602;23.470;2024-03-08T08:42:58;7.82;;;5.20;;
11052;SDS011;55230;42.602;23.470;2024-03-08T08:45:24;6.25;;;5.22;;
11052;SDS011;55230;42.602;23.470;2024-03-08T08:47:50;5.65;;;5.22;;
11052;SDS011;55230;42.602;23.470;2024-03-08T08:50:15;4.10;;;3.70;;
11052;SDS011;55230;42.602;23.470;2024-03-08T08:52:48;3.92;;;3.55;;
11052;SDS011;55230;42.602;23.470;2024-03-08T08:55:14;3.90;;;3.42;;
11052;SDS011;55230;42.602;23.470;2024-03-08T08:57:40;3.58;;;3.30;;
11052;SDS011;55230;42.602;23.470;2024-03-08T09:00:06;3.35;;;3.08;;
11052;SDS011;55230;42.602;23.470;2024-03-08T09:02:32;2.45;;;2.25;;
11052;SDS011;55230;42.602;23.470;2024-03-08T09:05:00;2.72;;;2.13;;
11052;SDS011;55230;42.602;23.470;2024-03-08T09:07:26;3.35;;;2.92;;
11052;SDS011;55230;42.602;23.470;2024-03-08T09:09:53;3.28;;;3.08;;
11052;SDS011;55230;42.602;23.470;2024-03-08T09:12:22;2.30;;;2.10;;
11052;SDS011;55230;42.602;23.470;2024-03-08T09:14:48;1.85;;;1.75;;
11052;SDS011;55230;42.602;23.470;2024-03-08T09:17:14;1.67;;;1.42;;
11052;SDS011;55230;42.602;23.470;2024-03-08T09:19:42;5.05;;;4.07;;
11052;SDS011;55230;42.602;23.470;2024-03-08T09:22:08;3.80;;;3.10;;
11052;SDS011;55230;42.602;23.470;2024-03-08T09:24:33;1.90;;;1.80;;
11052;SDS011;55230;42.602;23.470;2024-03-08T09:26:59;1.98;;;1.88;;
11052;SDS011;55230;42.602;23.470;2024-03-08T09:29:25;2.28;;;2.08;;
11052;SDS011;55230;42.602;23.470;2024-03-08T09:31:50;2.90;;;1.80;;
11052;SDS011;55230;42.602;23.470;2024-03-08T09:34:16;2.78;;;2.08;;
11052;SDS011;55230;42.602;23.470;2024-03-08T09:36:44;2.30;;;2.20;;
11052;SDS011;55230;42.602;23.470;2024-03-08T09:39:09;2.85;;;2.58;;
11052;SDS011;55230;42.602;23.470;2024-03-08T09:41:35;2.75;;;2.55;;
11052;SDS011;55230;42.602;23.470;2024-03-08T09:44:00;3.08;;;2.70;;
11052;SDS011;55230;42.602;23.470;2024-03-08T09:46:26;3.10;;;1.50;;
11052;SDS011;55230;42.602;23.470;2024-03-08T09:48:52;2.83;;;2.40;;
11052;SDS011;55230;42.602;23.470;2024-03-08T09:51:19;2.95;;;2.40;;
11052;SDS011;55230;42.602;23.470;2024-03-08T09:53:52;1.98;;;1.88;;
11052;SDS011;55230;42.602;23.470;2024-03-08T09:56:18;2.25;;;2.13;;
11052;SDS011;55230;42.602;23.470;2024-03-08T09:58:45;1.90;;;1.77;;
11052;SDS011;55230;42.602;23.470;2024-03-08T10:01:39;2.47;;;1.70;;
11052;SDS011;55230;42.602;23.470;2024-03-08T10:04:04;1.90;;;1.80;;
11052;SDS011;55230;42.602;23.470;2024-03-08T10:06:30;2.42;;;2.22;;
11052;SDS011;55230;42.602;23.470;2024-03-08T10:08:56;2.00;;;1.80;;
11052;SDS011;55230;42.602;23.470;2024-03-08T10:11:22;1.95;;;1.48;;
11052;SDS011;55230;42.602;23.470;2024-03-08T10:13:49;2.47;;;2.25;;
11052;SDS011;55230;42.602;23.470;2024-03-08T10:16:15;3.53;;;2.72;;
11052;SDS011;55230;42.602;23.470;2024-03-08T10:18:42;4.20;;;3.05;;
11052;SDS011;55230;42.602;23.470;2024-03-08T10:21:08;1.95;;;1.85;;
11052;SDS011;55230;42.602;23.470;2024-03-08T10:23:38;4.10;;;3.58;;
11052;SDS011;55230;42.602;23.470;2024-03-08T10:26:14;2.83;;;2.63;;
11052;SDS011;55230;42.602;23.470;2024-03-08T10:28:44;2.35;;;2.17;;
11052;SDS011;55230;42.602;23.470;2024-03-08T10:31:12;2.22;;;2.13;;
11052;SDS011;55230;42.602;23.470;2024-03-08T10:33:40;2.40;;;2.20;;
11052;SDS011;55230;42.602;23.470;2024-03-08T10:36:09;2.65;;;2.45;;
11052;SDS011;55230;42.602;23.470;2024-03-08T10:38:39;2.28;;;2.03;;
11052;SDS011;55230;42.602;23.470;2024-03-08T10:41:07;4.07;;;2.30;;
11052;SDS011;55230;42.602;23.470;2024-03-08T10:43:40;3.67;;;2.38;;
11052;SDS011;55230;42.602;23.470;2024-03-08T10:49:16;3.00;;;2.10;;
11052;SDS011;55230;42.602;23.470;2024-03-08T10:51:42;3.47;;;2.58;;
11052;SDS011;55230;42.602;23.470;2024-03-08T10:54:09;2.70;;;2.38;;
11052;SDS011;55230;42.602;23.470;2024-03-08T10:56:36;3.83;;;2.17;;
11052;SDS011;55230;42.602;23.470;2024-03-08T10:59:02;7.55;;;4.57;;
11052;SDS011;55230;42.602;23.470;2024-03-08T11:01:29;5.05;;;4.60;;
11052;SDS011;55230;42.602;23.470;2024-03-08T11:03:55;2.30;;;2.10;;
11052;SDS011;55230;42.602;23.470;2024-03-08T11:09:02;2.60;;;2.00;;
11052;SDS011;55230;42.602;23.470;2024-03-08T11:11:29;2.40;;;2.20;;
11052;SDS011;55230;42.602;23.470;2024-03-08T11:14:00;2.40;;;2.22;;
11052;SDS011;55230;42.602;23.470;2024-03-08T11:19:26;2.15;;;2.05;;
11052;SDS011;55230;42.602;23.470;2024-03-08T11:21:44;1.83;;;1.73;;
11052;SDS011;55230;42.602;23.470;2024-03-08T11:24:10;2.28;;;2.10;;
11052;SDS011;55230;42.602;23.470;2024-03-08T11:26:38;1.80;;;1.70;;
11052;SDS011;55230;42.602;23.470;2024-03-08T11:34:47;3.60;;;3.30;;
11052;SDS011;55230;42.602;23.470;2024-03-08T11:37:17;1.85;;;1.75;;
11052;SDS011;55230;42.602;23.470;2024-03-08T11:39:49;2.78;;;2.58;;
11052;SDS011;55230;42.602;23.470;2024-03-08T11:42:16;3.70;;;3.20;;
11052;SDS011;55230;42.602;23.470;2024-03-08T11:44:45;2.20;;;2.10;;
11052;SDS011;55230;42.602;23.470;2024-03-08T11:47:12;1.27;;;1.17;;
11052;SDS011;55230;42.602;23.470;2024-03-08T11:49:39;1.92;;;1.83;;
11052;SDS011;55230;42.602;23.470;2024-03-08T11:52:12;4.68;;;3.72;;
11052;SDS011;55230;42.602;23.470;2024-03-08T11:54:38;2.92;;;2.72;;
11052;SDS011;55230;42.602;23.470;2024-03-08T11:57:04;5.50;;;2.42;;
11052;SDS011;55230;42.602;23.470;2024-03-08T11:59:30;2.60;;;2.50;;
11052;SDS011;55230;42.602;23.470;2024-03-08T12:02:05;2.00;;;1.80;;
11052;SDS011;55230;42.602;23.470;2024-03-08T12:04:31;4.00;;;1.65;;
11052;SDS011;55230;42.602;23.470;2024-03-08T12:07:00;1.88;;;1.77;;
11052;SDS011;55230;42.602;23.470;2024-03-08T12:09:27;4.40;;;4.00;;
11052;SDS011;55230;42.602;23.470;2024-03-08T12:11:53;1.67;;;1.58;;
11052;SDS011;55230;42.602;23.470;2024-03-08T12:14:18;1.88;;;1.77;;
11052;SDS011;55230;42.602;23.470;2024-03-08T12:16:45;1.88;;;1.77;;
11052;SDS011;55230;42.602;23.470;2024-03-08T12:19:11;2.35;;;1.80;;
11052;SDS011;55230;42.602;23.470;2024-03-08T12:21:37;1.50;;;1.50;;
11052;SDS011;55230;42.602;23.470;2024-03-08T12:24:06;3.53;;;2.63;;
11052;SDS011;55230;42.602;23.470;2024-03-08T12:26:34;1.83;;;1.73;;
11052;SDS011;55230;42.602;23.470;2024-03-08T12:31:47;11.80;;;6.72;;
11052;SDS011;55230;42.602;23.470;2024-03-08T12:34:16;3.35;;;3.08;;
11052;SDS011;55230;42.602;23.470;2024-03-08T12:36:48;7.28;;;4.70;;
11052;SDS011;55230;42.602;23.470;2024-03-08T12:39:18;3.00;;;2.25;;
11052;SDS011;55230;42.602;23.470;2024-03-08T12:42:02;2.92;;;2.55;;
11052;SDS011;55230;42.602;23.470;2024-03-08T12:44:29;7.10;;;4.53;;
11052;SDS011;55230;42.602;23.470;2024-03-08T12:46:54;12.82;;;6.65;;
11052;SDS011;55230;42.602;23.470;2024-03-08T12:49:20;8.68;;;5.15;;
11052;SDS011;55230;42.602;23.470;2024-03-08T12:51:48;3.13;;;1.48;;
11052;SDS011;55230;42.602;23.470;2024-03-08T12:54:14;21.80;;;12.75;;
11052;SDS011;55230;42.602;23.470;2024-03-08T12:56:40;11.60;;;6.85;;
11052;SDS011;55230;42.602;23.470;2024-03-08T12:59:06;3.25;;;2.95;;
11052;SDS011;55230;42.602;23.470;2024-03-08T13:01:33;2.08;;;1.88;;
11052;SDS011;55230;42.602;23.470;2024-03-08T13:04:02;7.35;;;5.32;;
11052;SDS011;55230;42.602;23.470;2024-03-08T13:06:28;1.80;;;1.70;;
11052;SDS011;55230;42.602;23.470;2024-03-08T13:08:54;2.33;;;2.13;;
11052;SDS011;55230;42.602;23.470;2024-03-08T13:11:20;4.63;;;2.88;;
11052;SDS011;55230;42.602;23.470;2024-03-08T13:13:46;1.95;;;1.85;;
11052;SDS011;55230;42.602;23.470;2024-03-08T13:16:12;4.90;;;2.70;;
11052;SDS011;55230;42.602;23.470;2024-03-08T13:18:40;1.77;;;1.67;;
11052;SDS011;55230;42.602;23.470;2024-03-08T13:21:10;10.65;;;6.30;;
11052;SDS011;55230;42.602;23.470;2024-03-08T13:23:38;8.20;;;5.65;;
11052;SDS011;55230;42.602;23.470;2024-03-08T13:26:08;2.85;;;2.40;;
11052;SDS011;55230;42.602;23.470;2024-03-08T13:28:37;31.20;;;13.30;;
11052;SDS011;55230;42.602;23.470;2024-03-08T13:31:05;1.70;;;1.60;;
11052;SDS011;55230;42.602;23.470;2024-03-08T13:33:37;2.00;;;1.90;;
11052;SDS011;55230;42.602;23.470;2024-03-08T13:36:04;2.45;;;2.25;;
11052;SDS011;55230;42.602;23.470;2024-03-08T13:38:40;11.75;;;7.95;;
11052;SDS011;55230;42.602;23.470;2024-03-08T13:41:08;2.88;;;2.67;;
11052;SDS011;55230;42.602;23.470;2024-03-08T13:43:33;3.65;;;3.10;;
11052;SDS011;55230;42.602;23.470;2024-03-08T13:46:01;4.93;;;2.97;;
11052;SDS011;55230;42.602;23.470;2024-03-08T13:48:27;3.95;;;3.55;;
11052;SDS011;55230;42.602;23.470;2024-03-08T13:50:52;5.13;;;2.75;;
11052;SDS011;55230;42.602;23.470;2024-03-08T13:53:18;2.42;;;2.22;;
11052;SDS011;55230;42.602;23.470;2024-03-08T13:55:43;1.75;;;1.65;;
11052;SDS011;55230;42.602;23.470;2024-03-08T13:58:09;2.95;;;2.75;;
11052;SDS011;55230;42.602;23.470;2024-03-08T14:00:36;3.38;;;3.08;;
11052;SDS011;55230;42.602;23.470;2024-03-08T14:03:01;3.13;;;2.88;;
11052;SDS011;55230;42.602;23.470;2024-03-08T14:05:35;6.38;;;5.45;;
11052;SDS011;55230;42.602;23.470;2024-03-08T14:08:01;6.07;;;5.57;;
11052;SDS011;55230;42.602;23.470;2024-03-08T14:10:29;8.00;;;6.32;;
11052;SDS011;55230;42.602;23.470;2024-03-08T14:12:56;4.63;;;4.10;;
11052;SDS011;55230;42.602;23.470;2024-03-08T14:15:22;4.00;;;3.70;;
11052;SDS011;55230;42.602;23.470;2024-03-08T14:17:54;2.72;;;2.50;;
11052;SDS011;55230;42.602;23.470;2024-03-08T14:20:21;4.15;;;3.75;;
11052;SDS011;55230;42.602;23.470;2024-03-08T14:22:55;2.47;;;2.28;;
11052;SDS011;55230;42.602;23.470;2024-03-08T14:25:21;2.55;;;2.35;;
11052;SDS011;55230;42.602;23.470;2024-03-08T14:27:49;1.52;;;1.42;;
11052;SDS011;55230;42.602;23.470;2024-03-08T14:30:16;3.22;;;2.35;;
11052;SDS011;55230;42.602;23.470;2024-03-08T14:32:57;1.88;;;1.73;;
11052;SDS011;55230;42.602;23.470;2024-03-08T14:35:25;14.35;;;6.35;;
11052;SDS011;55230;42.602;23.470;2024-03-08T14:37:51;3.47;;;2.85;;
11052;SDS011;55230;42.602;23.470;2024-03-08T14:40:17;2.30;;;2.20;;
11052;SDS011;55230;42.602;23.470;2024-03-08T14:42:47;1.55;;;1.55;;
11052;SDS011;55230;42.602;23.470;2024-03-08T14:45:16;2.05;;;1.95;;
11052;SDS011;55230;42.602;23.470;2024-03-08T14:47:44;3.13;;;2.75;;
11052;SDS011;55230;42.602;23.470;2024-03-08T14:50:14;5.35;;;3.08;;